sensor_id;sensor_type;location;lat;lon;timestamp;temperature;humidity
18281;DHT22;9266;51.132;17.062;2023-10-09T00:02:24;8.40;1.00
18281;DHT22;9266;51.132;17.062;2023-10-09T00:04:51;8.50;99.90
18281;DHT22;9266;51.132;17.062;2023-10-09T00:07:20;8.50;99.90
18281;DHT22;9266;51.132;17.062;2023-10-09T00:09:51;8.50;1.00
18281;DHT22;9266;51.132;17.062;2023-10-09T00:12:20;8.40;1.00
18281;DHT22;9266;51.132;17.062;2023-10-09T00:14:49;8.40;1.00
18281;DHT22;9266;51.132;17.062;2023-10-09T00:17:21;8.40;1.00
18281;DHT22;9266;51.132;17.062;2023-10-09T00:19:56;8.30;99.90
18281;DHT22;9266;51.132;17.062;2023-10-09T00:22:25;8.40;1.00
18281;DHT22;9266;51.132;17.062;2023-10-09T00:24:56;8.40;1.00
18281;DHT22;9266;51.132;17.062;2023-10-09T00:27:47;9.60;1.00
18281;DHT22;9266;51.132;17.062;2023-10-09T00:30:16;8.20;99.90
18281;DHT22;9266;51.132;17.062;2023-10-09T00:32:44;8.20;91.90
18281;DHT22;9266;51.132;17.062;2023-10-09T00:35:18;8.20;99.90
18281;DHT22;9266;51.132;17.062;2023-10-09T00:38:05;8.30;99.90
18281;DHT22;9266;51.132;17.062;2023-10-09T00:40:42;8.40;1.00
18281;DHT22;9266;51.132;17.062;2023-10-09T00:43:13;8.40;1.00
18281;DHT22;9266;51.132;17.062;2023-10-09T00:45:41;8.40;42.70
18281;DHT22;9266;51.132;17.062;2023-10-09T00:48:10;8.50;18.40
18281;DHT22;9266;51.132;17.062;2023-10-09T00:50:40;8.50;1.00
18281;DHT22;9266;51.132;17.062;2023-10-09T00:53:17;8.50;1.00
18281;DHT22;9266;51.132;17.062;2023-10-09T00:55:58;8.60;1.00
18281;DHT22;9266;51.132;17.062;2023-10-09T00:58:32;8.60;1.00
18281;DHT22;9266;51.132;17.062;2023-10-09T01:01:02;8.60;1.00
18281;DHT22;9266;51.132;17.062;2023-10-09T01:03:30;8.60;1.00
18281;DHT22;9266;51.132;17.062;2023-10-09T01:06:01;8.60;99.90
18281;DHT22;9266;51.132;17.062;2023-10-09T01:08:42;8.50;1.00
18281;DHT22;9266;51.132;17.062;2023-10-09T01:11:16;8.60;1.00
18281;DHT22;9266;51.132;17.062;2023-10-09T01:13:48;8.50;1.00
18281;DHT22;9266;51.132;17.062;2023-10-09T01:16:37;8.50;1.00
18281;DHT22;9266;51.132;17.062;2023-10-09T01:19:06;8.50;99.90
18281;DHT22;9266;51.132;17.062;2023-10-09T01:21:39;8.50;1.00
18281;DHT22;9266;51.132;17.062;2023-10-09T01:24:08;8.50;1.00
18281;DHT22;9266;51.132;17.062;2023-10-09T01:26:36;8.50;99.90
18281;DHT22;9266;51.132;17.062;2023-10-09T01:29:10;8.50;8.90
18281;DHT22;9266;51.132;17.062;2023-10-09T01:31:42;8.40;99.90
18281;DHT22;9266;51.132;17.062;2023-10-09T01:34:18;8.30;99.90
18281;DHT22;9266;51.132;17.062;2023-10-09T01:36:50;8.30;99.90
18281;DHT22;9266;51.132;17.062;2023-10-09T01:39:22;8.30;1.00
18281;DHT22;9266;51.132;17.062;2023-10-09T01:41:53;8.20;1.00
18281;DHT22;9266;51.132;17.062;2023-10-09T01:44:27;8.20;1.00
18281;DHT22;9266;51.132;17.062;2023-10-09T01:47:00;8.20;1.00
18281;DHT22;9266;51.132;17.062;2023-10-09T01:49:33;8.20;1.00
18281;DHT22;9266;51.132;17.062;2023-10-09T01:52:03;8.30;1.00
18281;DHT22;9266;51.132;17.062;2023-10-09T01:54:36;8.50;1.00
18281;DHT22;9266;51.132;17.062;2023-10-09T01:57:04;8.50;1.00
18281;DHT22;9266;51.132;17.062;2023-10-09T01:59:37;8.60;99.90
18281;DHT22;9266;51.132;17.062;2023-10-09T02:02:12;8.50;99.90
18281;DHT22;9266;51.132;17.062;2023-10-09T02:04:51;8.50;1.00
18281;DHT22;9266;51.132;17.062;2023-10-09T02:07:19;8.60;99.90
18281;DHT22;9266;51.132;17.062;2023-10-09T02:09:54;8.60;1.00
18281;DHT22;9266;51.132;17.062;2023-10-09T02:12:22;8.70;99.90
18281;DHT22;9266;51.132;17.062;2023-10-09T02:14:50;8.60;1.00
18281;DHT22;9266;51.132;17.062;2023-10-09T02:17:20;8.70;1.00
18281;DHT22;9266;51.132;17.062;2023-10-09T02:19:50;8.60;1.00
18281;DHT22;9266;51.132;17.062;2023-10-09T02:22:18;8.60;99.90
18281;DHT22;9266;51.132;17.062;2023-10-09T02:24:45;8.60;1.00
18281;DHT22;9266;51.132;17.062;2023-10-09T02:27:26;8.70;1.00
18281;DHT22;9266;51.132;17.062;2023-10-09T02:30:15;8.60;1.00
18281;DHT22;9266;51.132;17.062;2023-10-09T02:32:45;8.60;1.00
18281;DHT22;9266;51.132;17.062;2023-10-09T02:35:15;8.60;1.00
18281;DHT22;9266;51.132;17.062;2023-10-09T02:37:57;8.50;1.00
18281;DHT22;9266;51.132;17.062;2023-10-09T02:40:27;8.50;99.90
18281;DHT22;9266;51.132;17.062;2023-10-09T02:42:59;8.40;1.00
18281;DHT22;9266;51.132;17.062;2023-10-09T02:45:26;8.50;1.00
18281;DHT22;9266;51.132;17.062;2023-10-09T02:48:04;8.40;1.00
18281;DHT22;9266;51.132;17.062;2023-10-09T02:50:36;8.40;99.90
18281;DHT22;9266;51.132;17.062;2023-10-09T02:53:05;8.40;63.30
18281;DHT22;9266;51.132;17.062;2023-10-09T02:55:35;8.40;99.90
18281;DHT22;9266;51.132;17.062;2023-10-09T02:58:05;8.40;1.00
18281;DHT22;9266;51.132;17.062;2023-10-09T03:00:36;8.40;1.00
18281;DHT22;9266;51.132;17.062;2023-10-09T03:03:04;8.40;99.90
18281;DHT22;9266;51.132;17.062;2023-10-09T03:05:33;8.40;1.00
18281;DHT22;9266;51.132;17.062;2023-10-09T03:08:04;8.40;1.00
18281;DHT22;9266;51.132;17.062;2023-10-09T03:10:31;8.50;1.00
18281;DHT22;9266;51.132;17.062;2023-10-09T03:12:59;7.70;1.00
18281;DHT22;9266;51.132;17.062;2023-10-09T03:15:30;8.70;1.00
18281;DHT22;9266;51.132;17.062;2023-10-09T03:18:01;8.70;1.00
18281;DHT22;9266;51.132;17.062;2023-10-09T03:20:30;8.60;99.90
18281;DHT22;9266;51.132;17.062;2023-10-09T03:22:57;8.60;1.00
18281;DHT22;9266;51.132;17.062;2023-10-09T03:25:27;8.50;1.00
18281;DHT22;9266;51.132;17.062;2023-10-09T03:27:54;8.50;1.00
18281;DHT22;9266;51.132;17.062;2023-10-09T03:30:24;8.50;1.00
18281;DHT22;9266;51.132;17.062;2023-10-09T03:32:53;8.50;99.90
18281;DHT22;9266;51.132;17.062;2023-10-09T03:35:21;8.50;13.60
18281;DHT22;9266;51.132;17.062;2023-10-09T03:37:54;8.50;99.90
18281;DHT22;9266;51.132;17.062;2023-10-09T03:40:24;8.50;1.00
18281;DHT22;9266;51.132;17.062;2023-10-09T03:42:52;8.50;99.80
18281;DHT22;9266;51.132;17.062;2023-10-09T03:45:20;8.50;99.90
18281;DHT22;9266;51.132;17.062;2023-10-09T03:47:54;8.50;99.90
18281;DHT22;9266;51.132;17.062;2023-10-09T03:50:28;8.50;1.00
18281;DHT22;9266;51.132;17.062;2023-10-09T03:53:02;8.40;1.00
18281;DHT22;9266;51.132;17.062;2023-10-09T03:55:34;8.30;1.00
18281;DHT22;9266;51.132;17.062;2023-10-09T03:58:01;8.30;99.90
18281;DHT22;9266;51.132;17.062;2023-10-09T04:00:29;8.40;99.90
18281;DHT22;9266;51.132;17.062;2023-10-09T04:02:58;8.30;1.00
18281;DHT22;9266;51.132;17.062;2023-10-09T04:05:26;8.30;1.00
18281;DHT22;9266;51.132;17.062;2023-10-09T04:07:54;8.20;2.30
18281;DHT22;9266;51.132;17.062;2023-10-09T04:10:24;8.10;99.90
18281;DHT22;9266;51.132;17.062;2023-10-09T04:13:12;8.10;99.90
18281;DHT22;9266;51.132;17.062;2023-10-09T04:15:49;8.10;1.00
18281;DHT22;9266;51.132;17.062;2023-10-09T04:18:19;8.00;1.00
18281;DHT22;9266;51.132;17.062;2023-10-09T04:20:54;7.90;84.70
18281;DHT22;9266;51.132;17.062;2023-10-09T04:23:39;7.90;99.90
18281;DHT22;9266;51.132;17.062;2023-10-09T04:26:20;7.90;99.90
18281;DHT22;9266;51.132;17.062;2023-10-09T04:28:46;7.90;99.90
18281;DHT22;9266;51.132;17.062;2023-10-09T04:31:17;7.80;99.90
18281;DHT22;9266;51.132;17.062;2023-10-09T04:33:46;7.80;99.90
18281;DHT22;9266;51.132;17.062;2023-10-09T04:36:19;7.80;99.90
18281;DHT22;9266;51.132;17.062;2023-10-09T04:38:54;7.80;99.90
18281;DHT22;9266;51.132;17.062;2023-10-09T04:41:38;7.80;99.90
18281;DHT22;9266;51.132;17.062;2023-10-09T04:44:18;7.80;99.90
18281;DHT22;9266;51.132;17.062;2023-10-09T04:46:44;7.80;99.90
18281;DHT22;9266;51.132;17.062;2023-10-09T04:49:33;7.80;99.90
18281;DHT22;9266;51.132;17.062;2023-10-09T04:52:15;7.90;99.90
18281;DHT22;9266;51.132;17.062;2023-10-09T04:54:56;7.90;99.90
18281;DHT22;9266;51.132;17.062;2023-10-09T04:57:43;7.90;99.90
18281;DHT22;9266;51.132;17.062;2023-10-09T05:00:26;7.90;99.90
18281;DHT22;9266;51.132;17.062;2023-10-09T05:03:12;7.90;99.90
18281;DHT22;9266;51.132;17.062;2023-10-09T05:05:55;7.90;99.90
18281;DHT22;9266;51.132;17.062;2023-10-09T05:08:26;7.90;99.90
18281;DHT22;9266;51.132;17.062;2023-10-09T05:10:59;8.00;99.90
18281;DHT22;9266;51.132;17.062;2023-10-09T05:13:41;8.10;99.90
18281;DHT22;9266;51.132;17.062;2023-10-09T05:16:23;8.00;99.90
18281;DHT22;9266;51.132;17.062;2023-10-09T05:18:52;8.00;99.90
18281;DHT22;9266;51.132;17.062;2023-10-09T05:21:24;8.00;99.90
18281;DHT22;9266;51.132;17.062;2023-10-09T05:24:10;8.00;99.90
18281;DHT22;9266;51.132;17.062;2023-10-09T05:26:46;8.00;99.90
18281;DHT22;9266;51.132;17.062;2023-10-09T05:29:18;8.00;99.90
18281;DHT22;9266;51.132;17.062;2023-10-09T05:32:00;8.00;99.90
18281;DHT22;9266;51.132;17.062;2023-10-09T05:34:30;8.00;99.90
18281;DHT22;9266;51.132;17.062;2023-10-09T05:37:02;8.00;99.90
18281;DHT22;9266;51.132;17.062;2023-10-09T05:39:43;7.90;99.90
18281;DHT22;9266;51.132;17.062;2023-10-09T05:42:32;8.00;99.90
18281;DHT22;9266;51.132;17.062;2023-10-09T05:45:09;8.00;99.90
18281;DHT22;9266;51.132;17.062;2023-10-09T05:47:54;8.00;99.90
18281;DHT22;9266;51.132;17.062;2023-10-09T05:50:22;7.90;99.90
18281;DHT22;9266;51.132;17.062;2023-10-09T05:53:02;6.60;99.90
18281;DHT22;9266;51.132;17.062;2023-10-09T05:55:42;7.90;99.90
18281;DHT22;9266;51.132;17.062;2023-10-09T05:58:34;7.80;99.90
18281;DHT22;9266;51.132;17.062;2023-10-09T06:01:19;7.90;99.90
18281;DHT22;9266;51.132;17.062;2023-10-09T06:04:04;7.90;99.90
18281;DHT22;9266;51.132;17.062;2023-10-09T06:06:41;7.90;99.90
18281;DHT22;9266;51.132;17.062;2023-10-09T06:09:13;7.80;99.90
18281;DHT22;9266;51.132;17.062;2023-10-09T06:12:15;7.90;99.90
18281;DHT22;9266;51.132;17.062;2023-10-09T06:14:59;8.00;99.90
18281;DHT22;9266;51.132;17.062;2023-10-09T06:17:45;8.00;99.90
18281;DHT22;9266;51.132;17.062;2023-10-09T06:20:16;8.00;99.90
18281;DHT22;9266;51.132;17.062;2023-10-09T06:23:01;7.90;99.90
18281;DHT22;9266;51.132;17.062;2023-10-09T06:25:43;7.80;99.90
18281;DHT22;9266;51.132;17.062;2023-10-09T06:28:17;7.90;99.90
18281;DHT22;9266;51.132;17.062;2023-10-09T06:30:58;7.90;99.90
18281;DHT22;9266;51.132;17.062;2023-10-09T06:33:45;7.80;99.90
18281;DHT22;9266;51.132;17.062;2023-10-09T06:36:33;7.80;99.90
18281;DHT22;9266;51.132;17.062;2023-10-09T06:38:59;7.80;99.90
18281;DHT22;9266;51.132;17.062;2023-10-09T06:41:58;7.80;99.90
18281;DHT22;9266;51.132;17.062;2023-10-09T06:44:35;7.80;99.90
18281;DHT22;9266;51.132;17.062;2023-10-09T06:47:16;7.90;99.90
18281;DHT22;9266;51.132;17.062;2023-10-09T06:49:44;7.90;99.90
18281;DHT22;9266;51.132;17.062;2023-10-09T06:52:31;7.90;99.90
18281;DHT22;9266;51.132;17.062;2023-10-09T06:55:11;7.90;99.90
18281;DHT22;9266;51.132;17.062;2023-10-09T06:57:46;8.00;99.90
18281;DHT22;9266;51.132;17.062;2023-10-09T07:00:15;7.90;99.90
18281;DHT22;9266;51.132;17.062;2023-10-09T07:02:56;7.80;99.90
18281;DHT22;9266;51.132;17.062;2023-10-09T07:05:23;7.90;99.90
18281;DHT22;9266;51.132;17.062;2023-10-09T07:08:03;8.00;99.90
18281;DHT22;9266;51.132;17.062;2023-10-09T07:10:49;9.00;99.90
18281;DHT22;9266;51.132;17.062;2023-10-09T07:13:30;8.00;99.90
18281;DHT22;9266;51.132;17.062;2023-10-09T07:16:02;8.10;99.90
18281;DHT22;9266;51.132;17.062;2023-10-09T07:18:47;8.30;99.90
18281;DHT22;9266;51.132;17.062;2023-10-09T07:21:20;7.10;99.90
18281;DHT22;9266;51.132;17.062;2023-10-09T07:23:54;8.10;99.90
18281;DHT22;9266;51.132;17.062;2023-10-09T07:26:24;8.30;99.90
18281;DHT22;9266;51.132;17.062;2023-10-09T07:29:04;8.40;99.90
18281;DHT22;9266;51.132;17.062;2023-10-09T07:31:48;8.30;99.90
18281;DHT22;9266;51.132;17.062;2023-10-09T07:34:23;8.30;99.90
18281;DHT22;9266;51.132;17.062;2023-10-09T07:37:19;8.20;99.90
18281;DHT22;9266;51.132;17.062;2023-10-09T07:39:49;8.20;99.90
18281;DHT22;9266;51.132;17.062;2023-10-09T07:42:23;8.30;99.90
18281;DHT22;9266;51.132;17.062;2023-10-09T07:45:09;8.40;99.90
18281;DHT22;9266;51.132;17.062;2023-10-09T07:47:59;8.40;99.90
18281;DHT22;9266;51.132;17.062;2023-10-09T07:50:35;8.30;99.90
18281;DHT22;9266;51.132;17.062;2023-10-09T07:53:06;8.40;99.90
18281;DHT22;9266;51.132;17.062;2023-10-09T07:55:44;8.50;99.90
18281;DHT22;9266;51.132;17.062;2023-10-09T07:58:20;8.60;99.90
18281;DHT22;9266;51.132;17.062;2023-10-09T08:00:52;8.60;99.90
18281;DHT22;9266;51.132;17.062;2023-10-09T08:03:34;8.70;99.90
18281;DHT22;9266;51.132;17.062;2023-10-09T08:06:01;8.60;99.90
18281;DHT22;9266;51.132;17.062;2023-10-09T08:08:53;8.50;99.90
18281;DHT22;9266;51.132;17.062;2023-10-09T08:11:38;8.50;99.90
18281;DHT22;9266;51.132;17.062;2023-10-09T08:14:24;8.50;99.90
18281;DHT22;9266;51.132;17.062;2023-10-09T08:17:06;8.60;99.90
18281;DHT22;9266;51.132;17.062;2023-10-09T08:19:42;8.70;99.90
18281;DHT22;9266;51.132;17.062;2023-10-09T08:22:27;8.80;99.90
18281;DHT22;9266;51.132;17.062;2023-10-09T08:25:15;8.70;99.90
18281;DHT22;9266;51.132;17.062;2023-10-09T08:27:55;8.80;99.90
18281;DHT22;9266;51.132;17.062;2023-10-09T08:30:23;8.90;99.90
18281;DHT22;9266;51.132;17.062;2023-10-09T08:33:08;8.80;99.90
18281;DHT22;9266;51.132;17.062;2023-10-09T08:35:53;8.80;99.90
18281;DHT22;9266;51.132;17.062;2023-10-09T08:38:27;8.70;99.90
18281;DHT22;9266;51.132;17.062;2023-10-09T08:41:06;8.40;99.90
18281;DHT22;9266;51.132;17.062;2023-10-09T08:43:50;8.40;99.90
18281;DHT22;9266;51.132;17.062;2023-10-09T08:46:20;8.40;99.90
18281;DHT22;9266;51.132;17.062;2023-10-09T08:48:49;8.40;99.90
18281;DHT22;9266;51.132;17.062;2023-10-09T08:51:17;8.50;99.90
18281;DHT22;9266;51.132;17.062;2023-10-09T08:53:46;8.50;99.90
18281;DHT22;9266;51.132;17.062;2023-10-09T08:56:13;8.50;99.90
18281;DHT22;9266;51.132;17.062;2023-10-09T08:58:48;8.50;99.90
18281;DHT22;9266;51.132;17.062;2023-10-09T09:01:17;8.30;99.90
18281;DHT22;9266;51.132;17.062;2023-10-09T09:03:49;8.30;99.90
18281;DHT22;9266;51.132;17.062;2023-10-09T09:06:18;8.40;99.90
18281;DHT22;9266;51.132;17.062;2023-10-09T09:08:46;8.40;99.90
18281;DHT22;9266;51.132;17.062;2023-10-09T09:11:15;8.40;99.90
18281;DHT22;9266;51.132;17.062;2023-10-09T09:13:45;8.30;99.90
18281;DHT22;9266;51.132;17.062;2023-10-09T09:16:19;8.30;99.90
18281;DHT22;9266;51.132;17.062;2023-10-09T09:18:52;8.40;99.90
18281;DHT22;9266;51.132;17.062;2023-10-09T09:21:26;8.30;99.90
18281;DHT22;9266;51.132;17.062;2023-10-09T09:23:55;8.40;99.90
18281;DHT22;9266;51.132;17.062;2023-10-09T09:26:44;8.40;99.90
18281;DHT22;9266;51.132;17.062;2023-10-09T09:29:40;8.50;99.90
18281;DHT22;9266;51.132;17.062;2023-10-09T09:32:09;8.70;99.90
18281;DHT22;9266;51.132;17.062;2023-10-09T09:34:48;8.70;99.90
18281;DHT22;9266;51.132;17.062;2023-10-09T09:37:20;8.70;99.90
18281;DHT22;9266;51.132;17.062;2023-10-09T09:39:47;8.80;99.90
18281;DHT22;9266;51.132;17.062;2023-10-09T09:42:17;8.70;99.90
18281;DHT22;9266;51.132;17.062;2023-10-09T09:44:51;8.60;99.90
18281;DHT22;9266;51.132;17.062;2023-10-09T09:47:18;8.60;99.90
18281;DHT22;9266;51.132;17.062;2023-10-09T09:49:54;8.60;99.90
18281;DHT22;9266;51.132;17.062;2023-10-09T09:52:26;8.60;99.90
18281;DHT22;9266;51.132;17.062;2023-10-09T09:54:53;8.60;99.90
18281;DHT22;9266;51.132;17.062;2023-10-09T09:57:23;8.50;99.90
18281;DHT22;9266;51.132;17.062;2023-10-09T09:59:53;8.60;99.90
18281;DHT22;9266;51.132;17.062;2023-10-09T10:02:27;8.70;99.90
18281;DHT22;9266;51.132;17.062;2023-10-09T10:05:03;8.70;99.90
18281;DHT22;9266;51.132;17.062;2023-10-09T10:07:33;8.70;99.90
18281;DHT22;9266;51.132;17.062;2023-10-09T10:10:33;8.90;99.90
18281;DHT22;9266;51.132;17.062;2023-10-09T10:13:00;8.90;99.90
18281;DHT22;9266;51.132;17.062;2023-10-09T10:16:00;9.00;99.90
18281;DHT22;9266;51.132;17.062;2023-10-09T10:18:53;9.10;99.90
18281;DHT22;9266;51.132;17.062;2023-10-09T10:21:29;9.10;99.90
18281;DHT22;9266;51.132;17.062;2023-10-09T10:24:05;9.20;99.90
18281;DHT22;9266;51.132;17.062;2023-10-09T10:27:15;9.40;99.90
18281;DHT22;9266;51.132;17.062;2023-10-09T10:30:28;9.50;99.90
18281;DHT22;9266;51.132;17.062;2023-10-09T10:33:02;9.30;99.90
18281;DHT22;9266;51.132;17.062;2023-10-09T10:35:41;9.40;99.90
18281;DHT22;9266;51.132;17.062;2023-10-09T10:38:34;9.20;99.90
18281;DHT22;9266;51.132;17.062;2023-10-09T10:41:15;9.10;99.90
18281;DHT22;9266;51.132;17.062;2023-10-09T10:43:48;9.10;99.90
18281;DHT22;9266;51.132;17.062;2023-10-09T10:46:21;9.20;99.90
18281;DHT22;9266;51.132;17.062;2023-10-09T10:49:07;9.10;99.90
18281;DHT22;9266;51.132;17.062;2023-10-09T10:51:46;9.00;99.90
18281;DHT22;9266;51.132;17.062;2023-10-09T10:54:22;9.00;99.90
18281;DHT22;9266;51.132;17.062;2023-10-09T10:57:17;9.00;99.90
18281;DHT22;9266;51.132;17.062;2023-10-09T10:59:57;9.10;99.90
18281;DHT22;9266;51.132;17.062;2023-10-09T11:02:43;9.20;99.90
18281;DHT22;9266;51.132;17.062;2023-10-09T11:05:09;9.30;99.90
18281;DHT22;9266;51.132;17.062;2023-10-09T11:07:56;9.50;99.90
18281;DHT22;9266;51.132;17.062;2023-10-09T11:10:25;9.60;99.90
18281;DHT22;9266;51.132;17.062;2023-10-09T11:12:57;9.60;99.90
18281;DHT22;9266;51.132;17.062;2023-10-09T11:15:53;9.60;99.90
18281;DHT22;9266;51.132;17.062;2023-10-09T11:18:41;9.60;99.90
18281;DHT22;9266;51.132;17.062;2023-10-09T11:21:14;9.70;99.90
18281;DHT22;9266;51.132;17.062;2023-10-09T11:23:58;10.00;99.90
18281;DHT22;9266;51.132;17.062;2023-10-09T11:26:47;10.10;99.90
18281;DHT22;9266;51.132;17.062;2023-10-09T11:29:19;10.40;99.90
18281;DHT22;9266;51.132;17.062;2023-10-09T11:31:58;10.40;99.90
18281;DHT22;9266;51.132;17.062;2023-10-09T11:34:25;10.40;99.90
18281;DHT22;9266;51.132;17.062;2023-10-09T11:37:01;10.40;99.90
18281;DHT22;9266;51.132;17.062;2023-10-09T11:39:29;10.30;99.90
18281;DHT22;9266;51.132;17.062;2023-10-09T11:42:09;10.30;99.90
18281;DHT22;9266;51.132;17.062;2023-10-09T11:44:40;10.10;99.90
18281;DHT22;9266;51.132;17.062;2023-10-09T11:47:10;10.10;99.90
18281;DHT22;9266;51.132;17.062;2023-10-09T11:49:58;10.20;99.90
18281;DHT22;9266;51.132;17.062;2023-10-09T11:52:56;10.30;99.90
18281;DHT22;9266;51.132;17.062;2023-10-09T11:55:35;10.50;99.90
18281;DHT22;9266;51.132;17.062;2023-10-09T11:58:04;10.50;99.90
18281;DHT22;9266;51.132;17.062;2023-10-09T12:00:33;10.50;99.90
18281;DHT22;9266;51.132;17.062;2023-10-09T12:03:11;10.40;99.90
18281;DHT22;9266;51.132;17.062;2023-10-09T12:05:39;10.20;99.90
18281;DHT22;9266;51.132;17.062;2023-10-09T12:08:10;10.50;99.90
18281;DHT22;9266;51.132;17.062;2023-10-09T12:10:39;10.60;99.90
18281;DHT22;9266;51.132;17.062;2023-10-09T12:13:08;10.50;99.90
18281;DHT22;9266;51.132;17.062;2023-10-09T12:15:35;10.60;99.90
18281;DHT22;9266;51.132;17.062;2023-10-09T12:18:07;10.70;99.90
18281;DHT22;9266;51.132;17.062;2023-10-09T12:20:40;10.70;99.90
18281;DHT22;9266;51.132;17.062;2023-10-09T12:23:08;10.70;99.90
18281;DHT22;9266;51.132;17.062;2023-10-09T12:25:40;10.30;99.90
18281;DHT22;9266;51.132;17.062;2023-10-09T12:28:12;10.30;99.90
18281;DHT22;9266;51.132;17.062;2023-10-09T12:30:39;9.90;99.90
18281;DHT22;9266;51.132;17.062;2023-10-09T12:33:07;10.10;99.90
18281;DHT22;9266;51.132;17.062;2023-10-09T12:35:38;9.80;99.90
18281;DHT22;9266;51.132;17.062;2023-10-09T12:38:06;10.00;99.90
18281;DHT22;9266;51.132;17.062;2023-10-09T12:40:35;10.10;99.90
18281;DHT22;9266;51.132;17.062;2023-10-09T12:43:03;10.30;99.90
18281;DHT22;9266;51.132;17.062;2023-10-09T12:45:35;10.30;99.90
18281;DHT22;9266;51.132;17.062;2023-10-09T12:48:02;10.30;99.90
18281;DHT22;9266;51.132;17.062;2023-10-09T12:50:35;10.40;99.90
18281;DHT22;9266;51.132;17.062;2023-10-09T12:53:08;10.50;99.90
18281;DHT22;9266;51.132;17.062;2023-10-09T12:55:36;10.50;99.90
18281;DHT22;9266;51.132;17.062;2023-10-09T12:58:06;10.30;99.90
18281;DHT22;9266;51.132;17.062;2023-10-09T13:00:36;10.10;99.90
18281;DHT22;9266;51.132;17.062;2023-10-09T13:03:10;9.90;99.90
18281;DHT22;9266;51.132;17.062;2023-10-09T13:05:47;9.90;99.90
18281;DHT22;9266;51.132;17.062;2023-10-09T13:08:23;10.10;99.90
18281;DHT22;9266;51.132;17.062;2023-10-09T13:10:57;10.20;99.90
18281;DHT22;9266;51.132;17.062;2023-10-09T13:13:27;10.30;99.90
18281;DHT22;9266;51.132;17.062;2023-10-09T13:16:07;10.40;99.90
18281;DHT22;9266;51.132;17.062;2023-10-09T13:18:38;10.50;99.90
18281;DHT22;9266;51.132;17.062;2023-10-09T13:21:05;10.50;99.90
18281;DHT22;9266;51.132;17.062;2023-10-09T13:23:32;10.50;99.90
18281;DHT22;9266;51.132;17.062;2023-10-09T13:26:08;10.50;99.90
18281;DHT22;9266;51.132;17.062;2023-10-09T13:28:48;10.80;99.90
18281;DHT22;9266;51.132;17.062;2023-10-09T13:31:18;10.80;99.90
18281;DHT22;9266;51.132;17.062;2023-10-09T13:33:47;10.90;99.90
18281;DHT22;9266;51.132;17.062;2023-10-09T13:36:14;10.80;99.90
18281;DHT22;9266;51.132;17.062;2023-10-09T13:38:52;10.80;99.90
18281;DHT22;9266;51.132;17.062;2023-10-09T13:41:20;10.80;99.90
18281;DHT22;9266;51.132;17.062;2023-10-09T13:43:47;10.90;99.90
18281;DHT22;9266;51.132;17.062;2023-10-09T13:46:18;11.10;99.90
18281;DHT22;9266;51.132;17.062;2023-10-09T13:48:45;11.10;99.90
18281;DHT22;9266;51.132;17.062;2023-10-09T13:51:15;11.10;99.90
18281;DHT22;9266;51.132;17.062;2023-10-09T13:53:44;11.10;99.90
18281;DHT22;9266;51.132;17.062;2023-10-09T13:56:15;11.00;99.90
18281;DHT22;9266;51.132;17.062;2023-10-09T13:58:45;11.00;99.90
18281;DHT22;9266;51.132;17.062;2023-10-09T14:01:13;10.90;99.90
18281;DHT22;9266;51.132;17.062;2023-10-09T14:03:54;10.80;99.90
18281;DHT22;9266;51.132;17.062;2023-10-09T14:06:21;10.90;99.90
18281;DHT22;9266;51.132;17.062;2023-10-09T14:08:56;10.70;90.30
18281;DHT22;9266;51.132;17.062;2023-10-09T14:11:24;10.40;99.90
18281;DHT22;9266;51.132;17.062;2023-10-09T14:13:51;10.20;66.20
18281;DHT22;9266;51.132;17.062;2023-10-09T14:16:18;10.10;1.00
18281;DHT22;9266;51.132;17.062;2023-10-09T14:18:54;10.00;1.00
18281;DHT22;9266;51.132;17.062;2023-10-09T14:21:24;10.00;99.90
18281;DHT22;9266;51.132;17.062;2023-10-09T14:23:52;10.10;99.90
18281;DHT22;9266;51.132;17.062;2023-10-09T14:26:23;10.00;99.90
18281;DHT22;9266;51.132;17.062;2023-10-09T14:28:51;9.90;1.00
18281;DHT22;9266;51.132;17.062;2023-10-09T14:31:19;9.90;99.90
18281;DHT22;9266;51.132;17.062;2023-10-09T14:33:54;10.00;99.90
18281;DHT22;9266;51.132;17.062;2023-10-09T14:36:21;9.90;1.00
18281;DHT22;9266;51.132;17.062;2023-10-09T14:38:49;9.90;99.90
18281;DHT22;9266;51.132;17.062;2023-10-09T14:41:19;10.00;1.00
18281;DHT22;9266;51.132;17.062;2023-10-09T14:43:47;10.00;1.00
18281;DHT22;9266;51.132;17.062;2023-10-09T14:46:15;10.00;99.90
18281;DHT22;9266;51.132;17.062;2023-10-09T14:48:42;10.00;1.00
18281;DHT22;9266;51.132;17.062;2023-10-09T14:51:13;10.00;99.90
18281;DHT22;9266;51.132;17.062;2023-10-09T14:53:40;9.90;1.00
18281;DHT22;9266;51.132;17.062;2023-10-09T14:56:07;9.90;1.00
18281;DHT22;9266;51.132;17.062;2023-10-09T14:58:35;9.70;66.30
18281;DHT22;9266;51.132;17.062;2023-10-09T15:01:08;9.60;1.00
18281;DHT22;9266;51.132;17.062;2023-10-09T15:03:40;9.50;99.90
18281;DHT22;9266;51.132;17.062;2023-10-09T15:06:07;9.60;1.00
18281;DHT22;9266;51.132;17.062;2023-10-09T15:08:38;9.60;57.30
18281;DHT22;9266;51.132;17.062;2023-10-09T15:11:05;9.60;99.90
18281;DHT22;9266;51.132;17.062;2023-10-09T15:13:32;9.70;99.90
18281;DHT22;9266;51.132;17.062;2023-10-09T15:16:01;9.60;1.00
18281;DHT22;9266;51.132;17.062;2023-10-09T15:18:29;9.60;99.90
18281;DHT22;9266;51.132;17.062;2023-10-09T15:20:58;9.60;1.00
18281;DHT22;9266;51.132;17.062;2023-10-09T15:23:26;9.60;99.90
18281;DHT22;9266;51.132;17.062;2023-10-09T15:25:54;9.60;99.90
18281;DHT22;9266;51.132;17.062;2023-10-09T15:28:22;9.50;1.00
18281;DHT22;9266;51.132;17.062;2023-10-09T15:30:50;9.40;99.90
18281;DHT22;9266;51.132;17.062;2023-10-09T15:33:18;9.30;99.90
18281;DHT22;9266;51.132;17.062;2023-10-09T15:35:46;9.40;1.00
18281;DHT22;9266;51.132;17.062;2023-10-09T15:38:15;9.40;1.00
18281;DHT22;9266;51.132;17.062;2023-10-09T15:40:42;9.50;99.90
18281;DHT22;9266;51.132;17.062;2023-10-09T15:43:11;9.30;1.00
18281;DHT22;9266;51.132;17.062;2023-10-09T15:45:43;9.30;99.90
18281;DHT22;9266;51.132;17.062;2023-10-09T15:48:13;9.40;1.00
18281;DHT22;9266;51.132;17.062;2023-10-09T15:50:45;9.40;99.90
18281;DHT22;9266;51.132;17.062;2023-10-09T15:53:14;9.40;99.90
18281;DHT22;9266;51.132;17.062;2023-10-09T15:55:43;9.40;1.00
18281;DHT22;9266;51.132;17.062;2023-10-09T15:58:12;9.50;99.90
18281;DHT22;9266;51.132;17.062;2023-10-09T16:00:43;9.50;1.00
18281;DHT22;9266;51.132;17.062;2023-10-09T16:03:11;9.40;1.00
18281;DHT22;9266;51.132;17.062;2023-10-09T16:05:39;9.40;99.90
18281;DHT22;9266;51.132;17.062;2023-10-09T16:08:07;9.30;1.00
18281;DHT22;9266;51.132;17.062;2023-10-09T16:10:34;9.30;99.90
18281;DHT22;9266;51.132;17.062;2023-10-09T16:13:01;9.30;1.00
18281;DHT22;9266;51.132;17.062;2023-10-09T16:15:31;9.30;99.90
18281;DHT22;9266;51.132;17.062;2023-10-09T16:17:58;9.10;99.90
18281;DHT22;9266;51.132;17.062;2023-10-09T16:20:32;11.00;99.90
18281;DHT22;9266;51.132;17.062;2023-10-09T16:22:59;9.20;1.00
18281;DHT22;9266;51.132;17.062;2023-10-09T16:25:30;9.20;77.50
18281;DHT22;9266;51.132;17.062;2023-10-09T16:28:00;9.20;1.00
18281;DHT22;9266;51.132;17.062;2023-10-09T16:30:28;9.10;99.90
18281;DHT22;9266;51.132;17.062;2023-10-09T16:32:56;9.10;99.90